Time;durP1;ratioP1;P1;durP2;ratioP2;P2;SDS_P1;SDS_P2;PMS_P1;PMS_P2;Temp;Humidity;BMP_temperature;BMP_pressure;BME280_temperature;BME280_humidity;BME280_pressure;Samples;Min_cycle;Max_cycle;Signal;HPM_P1;HPM_P2
2022/07/28 00:02:24;;;;;;;3.22;0.90;;;;;;;16.86;56.73;102019.72;4954689;28;20049;-68
2022/07/28 00:04:49;;;;;;;4.03;0.90;;;;;;;16.76;56.81;102010.88;4952445;28;20050;-68
2022/07/28 00:07:16;;;;;;;6.65;1.10;;;;;;;16.79;56.84;102010.06;4952896;28;20062;-67
2022/07/28 00:09:43;;;;;;;2.92;1.23;;;;;;;16.77;57.03;102014.34;4949290;28;20039;-69
2022/07/28 00:12:08;;;;;;;7.07;0.98;;;;;;;16.73;57.10;102007.34;4952782;28;20027;-68
2022/07/28 00:14:34;;;;;;;4.05;0.98;;;;;;;16.79;56.80;102010.06;4949659;28;20050;-68
2022/07/28 00:16:59;;;;;;;3.38;1.10;;;;;;;16.72;56.92;102009.06;4951120;28;20041;-68
2022/07/28 00:19:25;;;;;;;4.65;0.95;;;;;;;16.74;57.19;102003.88;4946140;28;20039;-69
2022/07/28 00:21:50;;;;;;;4.50;1.13;;;;;;;16.75;57.16;102000.47;4950721;28;20501;-68
2022/07/28 00:24:16;;;;;;;5.28;1.15;;;;;;;16.64;57.29;102005.41;4947650;28;20130;-67
2022/07/28 00:26:42;;;;;;;4.53;1.13;;;;;;;16.73;57.29;102004.75;4950539;28;20133;-67
2022/07/28 00:29:07;;;;;;;3.72;1.10;;;;;;;16.78;57.68;102016.09;4950591;28;20042;-68
2022/07/28 00:31:33;;;;;;;3.70;1.20;;;;;;;16.75;57.07;102019.53;4950923;28;20027;-69
2022/07/28 00:33:58;;;;;;;4.13;1.00;;;;;;;16.71;57.37;102015.09;4949090;28;20037;-67
2022/07/28 00:36:24;;;;;;;3.53;0.90;;;;;;;16.72;57.46;102009.06;4952076;28;20058;-68
2022/07/28 00:38:49;;;;;;;6.50;1.02;;;;;;;16.72;57.49;102003.88;4948208;28;20035;-68
2022/07/28 00:41:15;;;;;;;3.80;1.00;;;;;;;16.66;57.56;102002.84;4953677;28;20046;-69
2022/07/28 00:43:46;;;;;;;4.80;1.00;;;;;;;16.62;57.86;102000.19;4952814;28;20043;-68
2022/07/28 00:46:14;;;;;;;4.13;1.20;;;;;;;16.67;57.82;102001.97;4947229;28;20019;-68
2022/07/28 00:48:42;;;;;;;2.67;1.00;;;;;;;16.68;57.73;102008.91;4950209;28;20432;-68
2022/07/28 00:51:08;;;;;;;3.13;0.90;;;;;;;16.66;57.69;102002.84;4952644;28;20454;-68
2022/07/28 00:53:34;;;;;;;2.15;0.95;;;;;;;16.63;57.80;101995.88;4951349;28;20043;-69
2022/07/28 00:56:00;;;;;;;2.97;1.00;;;;;;;16.63;57.85;101998.47;4948285;28;20101;-69
2022/07/28 00:58:26;;;;;;;4.05;0.90;;;;;;;16.56;57.88;101994.84;4954939;28;20389;-69
2022/07/28 01:00:52;;;;;;;2.08;0.98;;;;;;;16.59;57.95;101988.84;4949270;28;20089;-68
2022/07/28 01:03:17;;;;;;;4.03;1.20;;;;;;;16.57;58.17;101988.81;4949569;28;20038;-69
2022/07/28 01:05:55;;;;;;;4.68;1.17;;;;;;;16.61;58.08;101984.53;4951059;28;20067;-69
2022/07/28 01:08:37;;;;;;;3.00;1.13;;;;;;;16.58;57.95;101985.38;4950847;28;20030;-69
2022/07/28 01:11:30;;;;;;;4.35;1.20;;;;;;;16.58;57.82;101985.38;4950195;28;20042;-69
2022/07/28 01:14:09;;;;;;;8.13;1.23;;;;;;;16.49;58.34;101981.69;4946931;28;20387;-69
2022/07/28 01:16:42;;;;;;;5.07;1.10;;;;;;;16.47;58.31;101979.06;4950190;28;20058;-69
2022/07/28 01:19:32;;;;;;;4.80;1.20;;;;;;;16.50;58.06;101981.75;4946106;28;20112;-70
2022/07/28 01:22:00;;;;;;;5.13;1.25;;;;;;;16.38;58.46;101981.47;4949011;28;20070;-69
2022/07/28 01:24:47;;;;;;;4.35;1.20;;;;;;;16.38;58.29;101975.38;4950313;28;20023;-69
2022/07/28 01:27:45;;;;;;;5.63;1.17;;;;;;;16.40;58.29;101973.72;4946094;28;20085;-69
2022/07/28 01:30:33;;;;;;;3.25;1.10;;;;;;;16.40;58.27;101973.72;4950844;28;20427;-71
2022/07/28 01:33:11;;;;;;;6.68;1.00;;;;;;;16.35;58.49;101979.69;4947793;28;20035;-68
2022/07/28 01:35:44;;;;;;;4.70;1.15;;;;;;;16.27;58.66;101968.25;4945619;28;20058;-69
2022/07/28 01:38:12;;;;;;;4.43;1.27;;;;;;;16.20;59.31;101975.84;4947181;28;20039;-69
2022/07/28 01:40:41;;;;;;;4.90;1.10;;;;;;;16.19;58.91;101977.56;4947615;28;20028;-69
2022/07/28 01:43:10;;;;;;;3.78;1.17;;;;;;;16.22;58.87;101969.88;4950128;28;20453;-69
2022/07/28 01:45:39;;;;;;;5.47;1.10;;;;;;;16.22;59.10;101964.69;4950219;28;20891;-69
2022/07/28 01:48:05;;;;;;;;;;;;;;;16.43;58.14;101964.25;4950396;29;20027;-69
2022/07/28 01:50:33;;;;;;;2.80;1.00;;;;;;;16.23;58.99;101962.97;4953639;28;19909;-69
2022/07/28 01:52:59;;;;;;;4.40;1.38;;;;;;;16.23;59.39;101970.75;4947653;28;20417;-69
2022/07/28 01:55:26;;;;;;;3.17;1.35;;;;;;;16.17;59.04;101961.09;4950789;28;20436;-68
2022/07/28 01:57:54;;;;;;;5.47;1.02;;;;;;;16.18;58.77;101967.16;4942076;28;20725;-69
2022/07/28 02:00:21;;;;;;;6.15;1.30;;;;;;;16.18;59.58;101965.44;4946741;28;20551;-69
2022/07/28 02:02:48;;;;;;;3.42;1.00;;;;;;;16.16;59.21;101963.66;4950515;28;20031;-69
2022/07/28 02:05:17;;;;;;;3.75;1.15;;;;;;;16.16;59.18;101963.66;4949016;28;20076;-69
2022/07/28 02:07:45;;;;;;;4.07;1.40;;;;;;;16.06;59.39;101952.19;4951172;28;20070;-69
2022/07/28 02:10:13;;;;;;;4.40;1.25;;;;;;;16.08;59.23;101956.59;4951813;28;20054;-69
2022/07/28 02:12:40;;;;;;;3.38;1.20;;;;;;;15.99;59.68;101942.53;4949168;28;20028;-69
2022/07/28 02:15:08;;;;;;;5.38;1.83;;;;;;;15.96;59.61;101945.06;4947539;29;20023;-69
2022/07/28 02:17:35;;;;;;;3.42;1.42;;;;;;;16.00;59.66;101947.75;4948637;28;20490;-69
2022/07/28 02:20:04;;;;;;;3.58;1.20;;;;;;;16.00;59.39;101942.53;4948572;28;20035;-69
2022/07/28 02:22:31;;;;;;;3.60;1.17;;;;;;;15.99;58.97;101942.53;4945902;28;20041;-69
2022/07/28 02:24:57;;;;;;;6.43;1.90;;;;;;;15.82;59.64;101948.19;4946582;28;20046;-69
2022/07/28 02:27:32;;;;;;;5.32;1.33;;;;;;;15.89;59.88;101946.59;4949437;28;20030;-69
2022/07/28 02:30:07;;;;;;;5.07;1.48;;;;;;;15.85;59.12;101949.13;4949038;28;20057;-68
2022/07/28 02:32:51;;;;;;;3.58;1.40;;;;;;;15.88;59.00;101947.44;4947484;28;20374;-68
2022/07/28 02:35:38;;;;;;;5.25;1.33;;;;;;;15.85;59.01;101942.22;4947078;28;20078;-69
2022/07/28 02:38:13;;;;;;;4.10;1.33;;;;;;;15.79;59.00;101942.94;4947232;28;20458;-69
2022/07/28 02:40:41;;;;;;;2.70;1.08;;;;;;;15.76;59.25;101953.22;4951670;28;20030;-68
2022/07/28 02:43:14;;;;;;;3.78;1.40;;;;;;;15.85;58.87;101954.31;4952727;28;20047;-68
2022/07/28 02:45:43;;;;;;;3.95;1.30;;;;;;;15.82;58.76;101952.50;4949006;28;20031;-68
2022/07/28 02:48:12;;;;;;;4.13;1.63;;;;;;;15.74;58.57;101943.66;4946063;29;20374;-68
2022/07/28 02:50:39;;;;;;;5.78;1.15;;;;;;;15.56;58.77;101936.28;4949200;28;20027;-67
2022/07/28 02:53:06;;;;;;;2.75;1.10;;;;;;;15.56;59.00;101950.13;4947019;28;20089;-68
2022/07/28 02:55:33;;;;;;;3.90;1.40;;;;;;;15.50;58.96;101942.19;4950067;28;20481;-68
2022/07/28 02:57:59;;;;;;;4.63;1.30;;;;;;;15.48;58.86;101941.28;4946694;28;20062;-68
2022/07/28 03:00:26;;;;;;;4.88;1.40;;;;;;;15.48;59.29;101941.28;4949451;28;20466;-68
2022/07/28 03:02:54;;;;;;;4.90;1.33;;;;;;;15.49;58.83;101937.84;4944199;28;20050;-68
2022/07/28 03:05:20;;;;;;;5.47;1.15;;;;;;;15.40;58.74;101934.13;4955134;28;20068;-68
2022/07/28 03:07:51;;;;;;;4.35;1.02;;;;;;;15.36;58.95;101943.56;4947743;28;20015;-68
2022/07/28 03:10:21;;;;;;;5.53;1.70;;;;;;;15.42;59.08;101935.94;4950975;28;20031;-68
2022/07/28 03:12:47;;;;;;;4.00;1.10;;;;;;;15.35;58.89;101940.91;4949644;28;20018;-69
2022/07/28 03:15:13;;;;;;;3.63;1.08;;;;;;;15.38;58.97;101943.59;4946346;28;20031;-68
2022/07/28 03:17:38;;;;;;;4.15;1.33;;;;;;;15.26;59.03;101949.34;4946868;28;20529;-68
2022/07/28 03:20:05;;;;;;;3.85;1.17;;;;;;;15.32;59.02;101946.91;4947149;28;20122;-68
2022/07/28 03:22:30;;;;;;;2.90;1.00;;;;;;;15.32;59.19;101948.63;4948573;28;20402;-68
2022/07/28 03:24:58;;;;;;;3.47;1.27;;;;;;;15.37;59.00;101950.50;4933253;28;20036;-69
2022/07/28 03:27:29;;;;;;;3.90;1.17;;;;;;;15.38;59.25;101949.66;4949041;28;20032;-70
2022/07/28 03:30:03;;;;;;;3.83;1.30;;;;;;;15.42;58.87;101954.09;4944376;28;20023;-69
2022/07/28 03:32:32;;;;;;;6.20;1.63;;;;;;;15.42;59.30;101956.69;4945373;29;20035;-69
2022/07/28 03:34:58;;;;;;;5.20;1.20;;;;;;;15.39;58.98;101948.81;4943831;28;20031;-69
2022/07/28 03:37:54;;;;;;;7.45;1.50;;;;;;;15.46;59.07;101948.13;4946891;28;20130;-69
2022/07/28 03:40:25;;;;;;;4.35;1.52;;;;;;;15.35;59.12;101953.88;4944347;28;20042;-69
2022/07/28 03:42:51;;;;;;;6.93;1.20;;;;;;;15.41;59.11;101966.97;4950703;28;20035;-68
2022/07/28 03:45:17;;;;;;;3.83;1.17;;;;;;;15.37;59.13;101958.28;4943214;28;20020;-69
2022/07/28 03:47:53;;;;;;;3.05;1.33;;;;;;;15.41;59.25;101956.63;4951105;28;20133;-68
2022/07/28 03:50:29;;;;;;;6.50;1.65;;;;;;;15.38;59.47;101954.84;4949590;28;20054;-69
2022/07/28 03:52:55;;;;;;;4.15;1.10;;;;;;;15.29;59.32;101954.63;4948115;28;20648;-69
2022/07/28 03:55:21;;;;;;;6.22;1.30;;;;;;;15.34;59.42;101959.88;4943761;28;20466;-69
2022/07/28 03:57:47;;;;;;;2.35;1.10;;;;;;;15.31;59.63;101958.13;4948578;28;20039;-69
2022/07/28 04:00:15;;;;;;;2.90;1.20;;;;;;;15.31;59.66;101954.66;4946143;28;20035;-69
2022/07/28 04:02:43;;;;;;;3.88;1.20;;;;;;;15.33;59.74;101960.72;4944641;28;20482;-69
2022/07/28 04:05:13;;;;;;;3.22;1.35;;;;;;;15.34;59.72;101959.88;4948625;28;20036;-68
2022/07/28 04:07:39;;;;;;;4.90;1.05;;;;;;;15.27;59.87;101951.97;4948094;28;20039;-69
2022/07/28 04:10:11;;;;;;;4.70;1.60;;;;;;;15.28;59.93;101948.53;4946136;28;20042;-69
2022/07/28 04:12:56;;;;;;;3.03;1.30;;;;;;;15.26;60.04;101959.69;4948102;28;20058;-69
2022/07/28 04:15:23;;;;;;;2.28;1.13;;;;;;;15.26;60.23;101954.53;4945360;28;20371;-69
2022/07/28 04:17:50;;;;;;;6.13;1.50;;;;;;;15.24;60.12;101956.19;4948048;29;20041;-69
2022/07/28 04:20:17;;;;;;;4.03;1.40;;;;;;;15.23;60.94;101957.03;4945262;28;20043;-69
2022/07/28 04:22:46;;;;;;;6.07;1.40;;;;;;;15.22;60.34;101948.38;4946242;28;20033;-69
2022/07/28 04:25:12;;;;;;;5.50;1.48;;;;;;;15.13;60.55;101944.69;4951209;28;20122;-69
2022/07/28 04:27:38;;;;;;;5.75;1.50;;;;;;;15.14;60.94;101947.28;4947828;28;20039;-69
2022/07/28 04:30:15;;;;;;;7.40;1.48;;;;;;;15.17;60.95;101943.94;4950687;29;20047;-69
2022/07/28 04:32:45;;;;;;;4.82;1.30;;;;;;;15.11;60.90;101947.22;4951206;28;20046;-68
2022/07/28 04:35:11;;;;;;;4.05;1.40;;;;;;;15.13;60.99;101949.84;4950999;28;20073;-69
2022/07/28 04:37:38;;;;;;;6.00;1.55;;;;;;;15.12;61.17;101948.09;4951963;28;20031;-69
2022/07/28 04:40:06;;;;;;;8.35;1.60;;;;;;;15.10;61.08;101944.56;4949309;28;20054;-69
2022/07/28 04:42:31;;;;;;;3.60;1.35;;;;;;;15.07;61.19;101947.97;4948156;28;20103;-69
2022/07/28 04:44:57;;;;;;;4.85;1.50;;;;;;;15.08;61.44;101952.31;4945851;28;20518;-69
2022/07/28 04:47:23;;;;;;;5.15;1.48;;;;;;;15.09;61.53;101948.00;4953568;28;20026;-69
2022/07/28 04:49:49;;;;;;;3.88;1.17;;;;;;;15.11;61.58;101943.78;4951369;28;20051;-69
2022/07/28 04:52:14;;;;;;;5.85;1.88;;;;;;;15.12;61.41;101941.22;4951834;29;20042;-69
2022/07/28 04:54:40;;;;;;;5.82;1.52;;;;;;;15.06;61.56;101943.63;4948190;28;20035;-69
2022/07/28 04:57:06;;;;;;;5.15;1.40;;;;;;;15.08;61.88;101943.66;4948439;28;20097;-69
2022/07/28 04:59:31;;;;;;;4.45;1.30;;;;;;;15.09;61.63;101940.25;4948390;28;20043;-69
2022/07/28 05:01:57;;;;;;;5.20;1.30;;;;;;;15.00;61.91;101931.41;4950741;28;20030;-69
2022/07/28 05:04:23;;;;;;;5.82;1.38;;;;;;;15.03;61.92;101946.13;4950095;28;20472;-69
2022/07/28 05:06:49;;;;;;;5.60;1.35;;;;;;;15.03;61.95;101939.22;4945116;28;20046;-68
2022/07/28 05:09:15;;;;;;;4.25;1.88;;;;;;;15.00;62.13;101939.16;4950201;28;20031;-68
2022/07/28 05:11:40;;;;;;;5.40;1.73;;;;;;;14.94;62.25;101944.19;4948828;28;20028;-69
2022/07/28 05:14:06;;;;;;;4.05;1.70;;;;;;;15.00;62.47;101946.94;4948591;28;20486;-69
2022/07/28 05:16:31;;;;;;;5.30;1.50;;;;;;;15.06;62.41;101950.53;4950174;28;20039;-69
2022/07/28 05:18:57;;;;;;;4.07;1.23;;;;;;;15.02;62.68;101949.56;4948838;28;20019;-69
2022/07/28 05:21:22;;;;;;;5.22;1.55;;;;;;;15.06;62.45;101953.13;4951616;28;20367;-69
2022/07/28 05:23:48;;;;;;;6.15;1.50;;;;;;;14.99;62.86;101945.19;4950669;28;20034;-67
2022/07/28 05:26:13;;;;;;;5.30;1.42;;;;;;;15.06;62.90;101956.59;4950429;28;20031;-69
2022/07/28 05:28:39;;;;;;;6.60;1.70;;;;;;;15.13;62.72;101955.03;4950285;28;20549;-69
2022/07/28 05:31:06;;;;;;;5.68;1.80;;;;;;;15.14;63.04;101951.59;4961428;28;20042;-69
2022/07/28 05:33:32;;;;;;;4.35;1.35;;;;;;;15.16;62.75;101943.03;4949034;28;20461;-69
2022/07/28 05:35:57;;;;;;;6.00;1.60;;;;;;;15.17;63.00;101949.97;4949456;28;20094;-69
2022/07/28 05:38:23;;;;;;;6.13;1.58;;;;;;;15.24;63.07;101951.03;4951461;29;20071;-68
2022/07/28 05:40:49;;;;;;;5.55;1.70;;;;;;;15.27;62.68;101948.50;4951738;29;20035;-69
2022/07/28 05:43:15;;;;;;;4.05;1.48;;;;;;;15.35;62.62;101948.69;4953297;28;20027;-69
2022/07/28 05:45:40;;;;;;;11.27;1.70;;;;;;;15.38;62.55;101944.47;4939801;28;20035;-69
2022/07/28 05:48:06;;;;;;;8.43;1.65;;;;;;;15.44;62.66;101954.13;4949171;28;20398;-69
2022/07/28 05:50:31;;;;;;;4.05;1.40;;;;;;;15.51;61.89;101941.34;4948307;28;20126;-69
2022/07/28 05:52:56;;;;;;;5.40;1.70;;;;;;;15.54;62.02;101945.75;4949361;28;20108;-69
2022/07/28 05:55:22;;;;;;;6.32;1.48;;;;;;;15.57;61.47;101943.22;4950535;28;20061;-69
2022/07/28 05:57:47;;;;;;;7.00;1.55;;;;;;;15.62;61.63;101956.28;4949784;28;20038;-69
2022/07/28 06:00:18;;;;;;;4.95;1.25;;;;;;;15.65;61.69;101954.69;4948644;28;20028;-69
2022/07/28 06:02:46;;;;;;;7.85;1.70;;;;;;;15.74;61.75;101954.91;4950591;28;20031;-69
2022/07/28 06:05:12;;;;;;;9.57;1.60;;;;;;;15.77;61.15;101959.28;4949069;29;20042;-69
2022/07/28 06:07:37;;;;;;;6.15;1.40;;;;;;;15.77;60.95;101952.41;4950009;28;20046;-69
2022/07/28 06:10:03;;;;;;;5.63;1.40;;;;;;;15.85;60.90;101955.19;4948649;29;20031;-69
2022/07/28 06:12:29;;;;;;;4.38;1.40;;;;;;;15.91;60.61;101960.50;4949971;28;20047;-69
2022/07/28 06:14:54;;;;;;;5.70;1.40;;;;;;;15.93;60.49;101953.63;4947423;28;20034;-69
2022/07/28 06:17:20;;;;;;;5.45;1.50;;;;;;;15.94;60.09;101962.28;4950041;28;20430;-69
2022/07/28 06:19:45;;;;;;;8.60;1.50;;;;;;;15.98;60.42;101953.75;4947274;28;20096;-69
2022/07/28 06:22:10;;;;;;;5.47;1.45;;;;;;;15.95;59.90;101953.66;4967501;28;20435;-70
2022/07/28 06:24:36;;;;;;;8.40;1.50;;;;;;;15.94;59.83;101952.78;4947839;28;20036;-69
2022/07/28 06:27:02;;;;;;;8.35;1.30;;;;;;;15.94;60.04;101949.31;4946795;28;20039;-68
2022/07/28 06:29:28;;;;;;;4.53;1.40;;;;;;;15.96;60.09;101945.94;4951904;28;20156;-69
2022/07/28 06:31:54;;;;;;;8.57;1.45;;;;;;;15.99;60.33;101951.19;4950099;28;20061;-69
2022/07/28 06:34:19;;;;;;;6.70;1.58;;;;;;;15.98;59.82;101944.25;4947800;28;20493;-69
2022/07/28 06:36:45;;;;;;;5.63;1.40;;;;;;;16.01;59.63;101949.47;4948478;28;20477;-69
2022/07/28 06:39:11;;;;;;;7.88;1.38;;;;;;;16.00;59.77;101941.66;4949460;28;20042;-69
2022/07/28 06:41:40;;;;;;;5.10;1.20;;;;;;;16.02;59.85;101945.19;4952279;28;20035;-68
2022/07/28 06:44:07;;;;;;;9.13;1.63;;;;;;;16.11;60.58;101950.59;4948475;28;20343;-68
2022/07/28 06:46:32;;;;;;;7.47;1.63;;;;;;;16.15;59.68;101946.34;4947081;28;20093;-68
2022/07/28 06:48:57;;;;;;;4.13;1.30;;;;;;;16.21;59.36;101942.16;4931950;28;20043;-68
2022/07/28 06:51:23;;;;;;;7.25;1.50;;;;;;;16.29;60.02;101950.13;4945701;28;20482;-68
2022/07/28 06:53:48;;;;;;;5.72;1.13;;;;;;;16.31;59.05;101954.47;4946762;28;20046;-68
2022/07/28 06:56:14;;;;;;;7.38;1.20;;;;;;;16.33;59.26;101944.16;4945547;28;20038;-68
2022/07/28 06:58:39;;;;;;;4.88;1.42;;;;;;;16.44;59.19;101949.56;4950579;29;20035;-68
2022/07/28 07:01:06;;;;;;;6.82;1.40;;;;;;;16.43;58.53;101948.69;4947639;28;20034;-69
2022/07/28 07:03:31;;;;;;;5.25;1.27;;;;;;;16.45;58.78;101952.22;4947138;28;20489;-68
2022/07/28 07:05:57;;;;;;;3.83;1.10;;;;;;;16.55;58.90;101951.53;4950470;28;20040;-69
2022/07/28 07:08:22;;;;;;;5.57;1.10;;;;;;;16.68;58.34;101949.19;4948669;28;20070;-69
2022/07/28 07:10:48;;;;;;;3.50;1.00;;;;;;;16.72;58.25;101943.25;4948905;28;20023;-68
2022/07/28 07:13:13;;;;;;;4.18;1.23;;;;;;;16.79;58.31;101942.53;4948147;28;21633;-69
2022/07/28 07:15:39;;;;;;;4.72;0.98;;;;;;;16.84;58.01;101951.28;4948379;28;20081;-69
2022/07/28 07:18:04;;;;;;;3.17;1.02;;;;;;;16.89;57.25;101952.25;4944377;28;20477;-69
2022/07/28 07:20:29;;;;;;;3.47;1.05;;;;;;;16.89;57.12;101942.75;4948429;28;20063;-69
2022/07/28 07:22:55;;;;;;;6.40;1.30;;;;;;;16.93;56.96;101947.97;4948775;29;20031;-68
2022/07/28 07:25:20;;;;;;;6.93;1.42;;;;;;;16.97;56.66;101949.81;4947910;28;20058;-69
2022/07/28 07:27:46;;;;;;;6.75;1.13;;;;;;;17.05;57.03;101961.25;4949004;28;20035;-69
2022/07/28 07:30:13;;;;;;;5.90;1.17;;;;;;;17.05;55.82;101956.91;4945490;28;20024;-69
2022/07/28 07:32:39;;;;;;;4.03;1.00;;;;;;;17.25;56.35;101953.81;4949927;28;20385;-69
2022/07/28 07:35:05;;;;;;;5.78;1.23;;;;;;;17.39;55.98;101950.59;4944397;28;20161;-69
2022/07/28 07:37:31;;;;;;;5.20;1.25;;;;;;;17.55;56.01;101945.66;4947569;28;20047;-69
2022/07/28 07:39:58;;;;;;;6.65;1.00;;;;;;;17.68;55.08;101947.59;4953774;28;20512;-69
2022/07/28 07:42:24;;;;;;;4.70;1.23;;;;;;;17.79;55.17;101947.81;4948181;29;20030;-70
2022/07/28 07:44:49;;;;;;;4.43;1.15;;;;;;;17.86;54.08;101939.25;4947772;28;20027;-69
2022/07/28 07:47:14;;;;;;;5.00;1.17;;;;;;;17.93;54.56;101941.97;4949169;28;20114;-69
2022/07/28 07:49:40;;;;;;;4.97;1.10;;;;;;;17.92;54.94;101928.94;4950018;28;20058;-69
2022/07/28 07:52:05;;;;;;;6.55;1.20;;;;;;;17.97;54.21;101932.47;4947475;28;20161;-70
2022/07/28 07:54:31;;;;;;;8.57;1.30;;;;;;;18.02;53.52;101935.13;4948909;28;20114;-69
2022/07/28 07:56:56;;;;;;;4.53;1.00;;;;;;;18.11;53.86;101930.94;4953691;28;20031;-69
2022/07/28 07:59:21;;;;;;;4.38;1.00;;;;;;;18.12;53.90;101926.59;4965009;28;20039;-69
2022/07/28 08:01:52;;;;;;;6.07;1.27;;;;;;;18.16;53.79;101941.41;4951330;28;20394;-69
2022/07/28 08:04:18;;;;;;;5.72;1.40;;;;;;;18.17;53.09;101932.75;4957102;28;20043;-69
2022/07/28 08:06:43;;;;;;;7.65;1.40;;;;;;;18.15;53.11;101930.13;4951566;28;20448;-70
2022/07/28 08:09:09;;;;;;;6.57;1.13;;;;;;;18.26;53.65;101930.28;4952705;28;20035;-69
2022/07/28 08:11:34;;;;;;;5.28;1.20;;;;;;;18.26;52.96;101926.78;4951232;28;20470;-70
2022/07/28 08:13:59;;;;;;;3.72;1.10;;;;;;;18.35;52.87;101929.53;4952660;28;20044;-67
2022/07/28 08:16:25;;;;;;;6.63;1.40;;;;;;;18.41;52.63;101933.06;4950107;28;20121;-68
2022/07/28 08:18:50;;;;;;;4.65;1.13;;;;;;;18.45;52.05;101934.88;4951350;28;20460;-68
2022/07/28 08:21:16;;;;;;;5.35;1.30;;;;;;;18.44;52.29;101930.53;4951306;28;20048;-69
2022/07/28 08:23:42;;;;;;;3.92;1.00;;;;;;;18.61;52.14;101922.03;4952371;28;20031;-68
2022/07/28 08:26:07;;;;;;;6.32;0.95;;;;;;;18.74;51.70;101923.94;4949290;28;20054;-70
2022/07/28 08:28:33;;;;;;;4.70;1.00;;;;;;;18.75;50.68;101925.72;4952783;28;20067;-70
2022/07/28 08:30:58;;;;;;;7.05;1.50;;;;;;;18.80;50.94;101921.41;4950844;28;20039;-70
2022/07/28 08:33:23;;;;;;;5.25;1.20;;;;;;;18.92;50.76;101928.47;4951016;28;20055;-69
2022/07/28 08:35:49;;;;;;;2.85;0.90;;;;;;;18.93;50.09;101923.31;4948577;28;20027;-69
2022/07/28 08:38:15;;;;;;;6.75;1.33;;;;;;;18.98;50.25;101925.94;4951197;28;20058;-68
2022/07/28 08:40:44;;;;;;;4.25;0.98;;;;;;;19.14;50.63;101919.16;4949363;29;20044;-68
2022/07/28 08:43:21;;;;;;;6.50;1.02;;;;;;;19.19;50.22;101928.78;4954488;28;20020;-70
2022/07/28 08:45:48;;;;;;;6.65;1.10;;;;;;;19.28;49.86;101920.16;4948065;28;20034;-69
2022/07/28 08:48:15;;;;;;;2.78;0.77;;;;;;;19.33;49.25;101922.81;4947223;29;20024;-68
2022/07/28 08:50:42;;;;;;;2.97;0.85;;;;;;;19.39;48.65;101920.25;4951768;28;20059;-70
2022/07/28 08:53:08;;;;;;;4.70;0.85;;;;;;;19.50;48.90;101923.81;4951993;28;20081;-71
2022/07/28 08:55:35;;;;;;;3.45;0.90;;;;;;;19.50;48.16;101908.19;4956778;28;20440;-68
2022/07/28 08:58:01;;;;;;;4.45;1.02;;;;;;;19.44;47.14;101916.81;4952950;28;20046;-69
2022/07/28 09:00:27;;;;;;;6.80;0.70;;;;;;;19.51;47.50;101910.78;4952884;28;20027;-69
2022/07/28 09:02:53;;;;;;;3.95;0.82;;;;;;;19.54;47.68;101916.03;4951125;28;20032;-68
2022/07/28 09:05:20;;;;;;;3.70;0.93;;;;;;;19.62;47.60;101910.03;4971845;28;20031;-67
2022/07/28 09:07:49;;;;;;;7.43;1.20;;;;;;;19.61;47.35;101908.31;4951233;28;20027;-67
2022/07/28 09:10:16;;;;;;;4.93;1.25;;;;;;;19.68;48.04;101910.09;4949651;28;20084;-69
2022/07/28 09:12:41;;;;;;;6.25;1.20;;;;;;;19.75;47.27;101909.25;4949798;28;20043;-68
2022/07/28 09:15:10;;;;;;;3.88;1.10;;;;;;;19.82;47.04;101914.53;4951903;28;20046;-72
2022/07/28 09:17:36;;;;;;;4.65;1.00;;;;;;;19.78;47.05;101907.56;4954620;28;20035;-69
2022/07/28 09:20:03;;;;;;;4.13;0.90;;;;;;;19.73;46.87;101914.47;4953821;28;20026;-68
2022/07/28 09:22:31;;;;;;;3.92;0.75;;;;;;;19.93;47.60;101904.16;4956373;28;20151;-70
2022/07/28 09:24:56;;;;;;;5.32;1.10;;;;;;;20.01;47.17;101906.81;4952126;28;20023;-70
2022/07/28 09:27:22;;;;;;;5.22;0.90;;;;;;;20.10;46.76;101901.66;4958492;29;20037;-69
2022/07/28 09:29:58;;;;;;;5.65;1.17;;;;;;;20.11;46.46;101892.06;4960412;28;20035;-69
2022/07/28 09:32:24;;;;;;;7.93;1.10;;;;;;;20.12;47.13;101884.25;4952757;29;20044;-70
2022/07/28 09:34:51;;;;;;;3.97;0.90;;;;;;;20.13;46.34;101891.19;4953817;29;20042;-69
2022/07/28 09:37:21;;;;;;;5.85;0.90;;;;;;;20.20;46.64;101886.88;4950487;28;20030;-70
2022/07/28 09:39:48;;;;;;;5.32;1.10;;;;;;;20.20;46.25;101887.75;4950660;28;20493;-69
2022/07/28 09:42:17;;;;;;;3.20;0.95;;;;;;;20.19;46.27;101866.84;4952719;28;20374;-69
2022/07/28 09:44:42;;;;;;;4.05;0.90;;;;;;;20.27;46.17;101876.50;4958973;28;20027;-69
2022/07/28 09:47:31;;;;;;;3.78;0.93;;;;;;;20.30;46.12;101855.59;4956217;28;20054;-70
2022/07/28 09:49:57;;;;;;;6.32;1.17;;;;;;;20.31;45.48;101856.47;4952539;28;20459;-70
2022/07/28 09:52:28;;;;;;;2.47;0.88;;;;;;;20.39;45.78;101856.50;4954245;28;20080;-71
2022/07/28 09:55:09;;;;;;;1.67;0.80;;;;;;;20.44;45.93;101849.53;4951556;29;20482;-70
2022/07/28 09:57:37;;;;;;;4.20;1.02;;;;;;;20.52;45.46;101845.25;4951139;28;20441;-71
2022/07/28 10:00:08;;;;;;;6.13;1.00;;;;;;;20.57;46.06;101835.69;4954927;28;20035;-70
2022/07/28 10:02:35;;;;;;;5.03;0.98;;;;;;;20.65;45.61;101848.78;4953145;29;20027;-69
2022/07/28 10:05:00;;;;;;;2.83;1.05;;;;;;;20.66;45.07;101851.38;4949634;29;20032;-69
2022/07/28 10:07:30;;;;;;;3.90;0.90;;;;;;;20.72;45.71;101848.78;4952006;28;20050;-69
2022/07/28 10:10:06;;;;;;;2.03;0.77;;;;;;;20.76;44.49;101853.16;4948967;28;20492;-68
2022/07/28 10:12:34;;;;;;;5.93;3.00;;;;;;;20.80;44.44;101861.84;4951120;28;20043;-69
2022/07/28 10:18:04;;;;;;;5.78;0.95;;;;;;;20.84;44.14;101848.78;4943795;29;20108;-68
2022/07/28 10:20:31;;;;;;;4.88;1.13;;;;;;;20.88;43.57;101854.91;4946092;28;20122;-69
2022/07/28 10:23:10;;;;;;;10.05;1.10;;;;;;;21.04;44.75;101848.81;4949025;28;20019;-69
2022/07/28 10:25:38;;;;;;;3.47;1.17;;;;;;;20.94;43.70;101847.06;4946483;28;20024;-70
2022/07/28 10:28:05;;;;;;;4.10;1.10;;;;;;;20.96;43.81;101839.22;4947124;28;20054;-69
2022/07/28 10:30:36;;;;;;;8.50;1.30;;;;;;;21.04;44.57;101847.94;4946812;28;20023;-69
2022/07/28 10:33:04;;;;;;;5.68;0.93;;;;;;;21.06;44.78;101838.38;4947400;28;20573;-68
2022/07/28 10:35:31;;;;;;;6.03;0.88;;;;;;;21.05;43.29;101845.34;4948679;28;20015;-68
2022/07/28 10:38:02;;;;;;;1.88;0.77;;;;;;;21.14;44.09;101844.47;4949163;28;20035;-69
2022/07/28 10:40:34;;;;;;;2.78;0.82;;;;;;;21.13;43.13;101837.50;4949003;28;20891;-69
2022/07/28 10:43:00;;;;;;;4.25;1.05;;;;;;;21.10;43.54;101837.47;4951109;28;20025;-69
2022/07/28 10:45:26;;;;;;;4.25;0.90;;;;;;;21.04;41.65;101838.34;4944127;28;20027;-68
2022/07/28 10:47:53;;;;;;;4.55;0.80;;;;;;;21.07;41.94;101837.50;4922618;28;20024;-69
2022/07/28 10:50:19;;;;;;;3.58;1.02;;;;;;;21.14;42.77;101828.78;4949405;28;20034;-70
2022/07/28 10:52:46;;;;;;;4.35;0.85;;;;;;;21.17;42.87;101826.13;4942841;28;20134;-68
2022/07/28 10:55:45;;;;;;;4.50;1.13;;;;;;;21.20;42.03;101839.22;4945717;28;20131;-69
2022/07/28 10:58:23;;;;;;;4.80;0.90;;;;;;;21.23;42.70;101836.59;4950884;28;20030;-68
2022/07/28 11:00:50;;;;;;;3.20;1.00;;;;;;;21.18;41.62;101829.66;4946451;28;20084;-68
2022/07/28 11:03:42;;;;;;;4.32;1.00;;;;;;;21.24;41.97;101829.66;4948383;28;20062;-68
2022/07/28 11:06:29;;;;;;;6.18;0.93;;;;;;;21.29;41.86;101835.75;4947439;28;20035;-68
2022/07/28 11:08:57;;;;;;;5.05;1.75;;;;;;;21.27;41.22;101827.88;4949198;28;20057;-70
2022/07/28 11:11:46;;;;;;;5.05;1.00;;;;;;;21.32;42.43;101831.41;4947441;28;20027;-70
2022/07/28 11:14:23;;;;;;;4.00;1.13;;;;;;;21.33;41.60;101825.28;4948796;28;20027;-68
2022/07/28 11:16:50;;;;;;;4.80;1.17;;;;;;;21.38;41.78;101831.41;4944432;28;20090;-69
2022/07/28 11:19:17;;;;;;;5.82;1.05;;;;;;;21.45;42.12;101819.19;4950212;28;20023;-69
2022/07/28 11:22:13;;;;;;;5.05;1.13;;;;;;;21.45;41.97;101813.06;4947437;28;20101;-68
2022/07/28 11:25:00;;;;;;;3.63;1.10;;;;;;;21.49;41.91;101822.69;4940205;29;20599;-69
2022/07/28 11:27:53;;;;;;;5.95;1.00;;;;;;;21.54;42.30;101819.19;4946684;28;20078;-69
2022/07/28 11:30:19;;;;;;;2.63;1.10;;;;;;;21.57;41.63;101815.66;4949592;28;20042;-70
2022/07/28 11:32:54;;;;;;;2.80;0.88;;;;;;;21.63;41.55;101813.03;4945544;28;20050;-68
2022/07/28 11:35:26;;;;;;;4.38;0.90;;;;;;;21.72;41.57;101807.78;4952427;28;20030;-69